Time;durP1;ratioP1;P1;durP2;ratioP2;P2;SDS_P1;SDS_P2;PMS_P1;PMS_P2;Temp;Humidity;BMP_temperature;BMP_pressure;BME280_temperature;BME280_humidity;BME280_pressure;Samples;Min_cycle;Max_cycle;Signal;HPM_P1;HPM_P2
2021/04/19 00:02:23;;;;;;;6.37;5.00;;;;;;;5.28;83.41;95626.98;1785028;80;21270;-68
2021/04/19 00:04:51;;;;;;;5.87;4.60;;;;;;;5.30;83.40;95616.96;1785000;80;21140;-68
2021/04/19 00:07:19;;;;;;;4.73;4.23;;;;;;;5.33;83.37;95620.02;1785137;80;21595;-68
2021/04/19 00:09:47;;;;;;;4.97;4.10;;;;;;;5.26;83.48;95625.66;1785205;80;21145;-68
2021/04/19 00:12:15;;;;;;;5.37;4.63;;;;;;;5.28;83.34;95621.31;1785238;80;21571;-68
2021/04/19 00:14:43;;;;;;;5.30;4.50;;;;;;;5.29;83.28;95616.53;1785414;80;21153;-68
2021/04/19 00:17:10;;;;;;;5.60;4.50;;;;;;;5.35;83.18;95616.98;1785085;80;21172;-68
2021/04/19 00:19:39;;;;;;;5.90;4.73;;;;;;;5.34;82.97;95613.49;1785176;80;21156;-68
2021/04/19 00:22:06;;;;;;;5.03;4.40;;;;;;;5.34;82.82;95611.28;1785277;80;21128;-68
2021/04/19 00:24:34;;;;;;;5.93;5.00;;;;;;;5.26;83.08;95607.34;1785305;80;21129;-68
2021/04/19 00:27:02;;;;;;;5.13;4.47;;;;;;;5.18;83.14;95608.64;1785538;80;21154;-68
2021/04/19 00:29:29;;;;;;;4.67;3.90;;;;;;;5.15;83.36;95608.64;1785501;80;21120;-69
2021/04/19 00:31:57;;;;;;;5.23;4.30;;;;;;;5.11;83.70;95608.18;1785227;80;21267;-68
2021/04/19 00:34:25;;;;;;;5.63;4.50;;;;;;;5.11;83.73;95608.63;1785185;80;21544;-68
2021/04/19 00:36:53;;;;;;;5.80;4.53;;;;;;;5.01;84.15;95609.02;1785164;80;21730;-69
2021/04/19 00:39:20;;;;;;;7.17;5.27;;;;;;;4.95;84.18;95605.97;1785220;80;21188;-69
2021/04/19 00:41:49;;;;;;;5.63;4.70;;;;;;;4.90;84.29;95609.44;1785256;80;21563;-69
2021/04/19 00:44:18;;;;;;;5.03;4.33;;;;;;;4.82;84.78;95604.19;1785274;80;21162;-68
2021/04/19 00:46:47;;;;;;;7.33;5.17;;;;;;;4.73;85.19;95605.44;1785103;80;21161;-69
2021/04/19 00:49:16;;;;;;;4.47;3.80;;;;;;;4.65;85.68;95606.72;1785418;80;21164;-68
2021/04/19 00:51:45;;;;;;;5.07;3.60;;;;;;;4.61;85.65;95606.69;1785148;80;21734;-69
2021/04/19 00:54:14;;;;;;;4.40;3.83;;;;;;;4.60;85.48;95601.91;1785168;80;21713;-68
2021/04/19 00:56:46;;;;;;;4.67;3.90;;;;;;;4.57;86.13;95601.03;1757168;80;21156;-68
2021/04/19 00:59:14;;;;;;;6.30;5.17;;;;;;;4.56;86.29;95606.66;1785066;80;21090;-68
2021/04/19 01:01:45;;;;;;;6.53;4.97;;;;;;;4.58;86.39;95601.45;1784921;80;21271;-68
2021/04/19 01:04:13;;;;;;;7.10;4.90;;;;;;;4.60;86.16;95599.73;1785131;80;21311;-68
2021/04/19 01:06:41;;;;;;;6.03;4.97;;;;;;;4.65;85.88;95596.70;1785252;80;21160;-68
2021/04/19 01:09:10;;;;;;;6.63;5.23;;;;;;;4.72;85.62;95597.17;1785341;80;21548;-68
2021/04/19 01:11:38;;;;;;;7.00;5.00;;;;;;;4.77;85.59;95600.68;1785053;80;21251;-68
2021/04/19 01:14:06;;;;;;;8.23;5.63;;;;;;;4.81;85.43;95602.42;1756645;80;21152;-68
2021/04/19 01:16:34;;;;;;;6.50;5.07;;;;;;;4.85;85.47;95595.48;1785413;80;21144;-68
2021/04/19 01:19:02;;;;;;;8.83;6.10;;;;;;;4.88;85.81;95594.17;1784983;80;21274;-68
2021/04/19 01:21:29;;;;;;;8.90;6.00;;;;;;;4.86;85.60;95596.77;1785141;80;21267;-68
2021/04/19 01:23:56;;;;;;;9.50;6.20;;;;;;;4.93;85.51;95595.92;1785153;80;21256;-68
2021/04/19 01:26:25;;;;;;;12.33;8.00;;;;;;;5.07;85.33;95596.42;1785230;80;21136;-69
2021/04/19 01:28:54;;;;;;;9.47;5.80;;;;;;;5.16;85.06;95594.68;1781141;80;21698;-68
2021/04/19 01:31:23;;;;;;;6.13;4.60;;;;;;;5.21;84.68;95591.64;1779230;80;21737;-68
2021/04/19 01:33:53;;;;;;;6.00;4.10;;;;;;;5.22;84.25;95586.00;1779033;81;21280;-68
2021/04/19 01:36:25;;;;;;;6.07;4.20;;;;;;;5.17;84.08;95582.06;1779272;81;21309;-68
2021/04/19 01:38:55;;;;;;;4.70;3.70;;;;;;;5.17;84.06;95588.59;1779475;81;21268;-68
2021/04/19 01:41:22;;;;;;;4.80;3.57;;;;;;;5.19;83.98;95587.27;1779077;81;21599;-68
2021/04/19 01:43:50;;;;;;;4.00;3.60;;;;;;;5.15;83.96;95587.72;1779317;81;21149;-68
2021/04/19 01:46:18;;;;;;;5.10;3.70;;;;;;;5.13;83.98;95588.58;1779324;81;21268;-68
2021/04/19 01:48:47;;;;;;;5.20;4.17;;;;;;;5.11;83.87;95591.18;1757838;81;21686;-68
2021/04/19 01:51:16;;;;;;;4.03;3.57;;;;;;;5.07;83.99;95588.58;1779308;81;21295;-69
2021/04/19 01:53:44;;;;;;;4.90;4.30;;;;;;;5.06;83.67;95590.73;1779422;81;21134;-69
2021/04/19 01:56:12;;;;;;;4.00;3.30;;;;;;;5.03;83.73;95594.66;1779270;81;21328;-68
2021/04/19 01:58:42;;;;;;;4.47;3.73;;;;;;;4.95;84.15;95592.02;1779380;81;21302;-68
2021/04/19 02:01:11;;;;;;;4.20;3.40;;;;;;;4.88;84.60;95593.73;1757509;81;21287;-69
2021/04/19 02:04:14;;;;;;;5.07;4.00;;;;;;;4.84;84.43;95595.02;1779457;81;21156;-69
2021/04/19 02:06:51;;;;;;;4.97;3.90;;;;;;;4.81;84.54;95592.41;1779534;81;21121;-71
2021/04/19 02:09:28;;;;;;;6.80;3.77;;;;;;;4.72;84.65;95595.87;1757227;81;21122;-71
2021/04/19 02:12:10;;;;;;;5.23;3.70;;;;;;;4.63;85.37;95588.84;1779069;80;21283;-68
2021/04/19 02:15:02;;;;;;;4.00;3.53;;;;;;;4.59;85.27;95586.23;1779374;81;21596;-69
2021/04/19 02:17:50;;;;;;;5.33;4.10;;;;;;;4.55;85.69;95591.42;1779166;80;21146;-68
2021/04/19 02:20:46;;;;;;;5.97;4.67;;;;;;;4.51;86.09;95589.69;1779388;81;21683;-68
2021/04/19 02:23:32;;;;;;;5.23;3.67;;;;;;;4.48;86.24;95594.00;1779312;81;21137;-71
2021/04/19 02:26:21;;;;;;;6.03;4.50;;;;;;;4.44;86.43;95590.95;1779374;81;21308;-71
2021/04/19 02:29:13;;;;;;;5.93;4.37;;;;;;;4.41;86.83;95598.34;1779393;81;21134;-71
2021/04/19 02:31:49;;;;;;;5.07;4.13;;;;;;;4.40;86.62;95590.48;1779144;81;21307;-68
2021/04/19 02:34:20;;;;;;;5.07;4.30;;;;;;;4.45;86.29;95590.08;1779051;80;21176;-68
2021/04/19 02:36:50;;;;;;;5.50;4.10;;;;;;;4.46;86.15;95587.89;1779392;81;21109;-68
2021/04/19 02:39:19;;;;;;;3.93;3.43;;;;;;;4.51;86.05;95584.46;1779277;81;21300;-68
2021/04/19 02:41:52;;;;;;;4.57;3.90;;;;;;;4.57;86.04;95590.14;1779347;81;21738;-68
2021/04/19 02:44:22;;;;;;;5.20;4.20;;;;;;;4.63;85.83;95591.90;1779233;81;21256;-68
2021/04/19 02:46:58;;;;;;;5.53;4.60;;;;;;;4.66;85.72;95586.67;1778426;80;21137;-68
2021/04/19 02:49:30;;;;;;;5.90;4.70;;;;;;;4.72;85.57;95586.28;1779280;81;21279;-68
2021/04/19 02:52:01;;;;;;;7.33;5.30;;;;;;;4.79;85.35;95580.66;1779325;81;21160;-68
2021/04/19 02:54:32;;;;;;;6.47;4.97;;;;;;;4.81;85.15;95581.95;1779346;81;21291;-68
2021/04/19 02:57:01;;;;;;;6.50;4.83;;;;;;;4.83;84.94;95577.16;1779196;81;21268;-68
2021/04/19 02:59:30;;;;;;;6.20;4.30;;;;;;;4.84;84.84;95581.55;1779636;81;21114;-68
2021/04/19 03:02:04;;;;;;;6.30;4.27;;;;;;;4.86;84.75;95577.60;1757426;81;21154;-68
2021/04/19 03:04:37;;;;;;;5.73;4.30;;;;;;;4.91;84.72;95572.85;1757676;81;21552;-68
2021/04/19 03:07:10;;;;;;;5.57;4.67;;;;;;;4.93;84.66;95578.06;1778687;80;21702;-68
2021/04/19 03:09:58;;;;;;;6.47;4.30;;;;;;;4.95;84.52;95571.11;1779248;81;21138;-68
2021/04/19 03:12:29;;;;;;;6.63;4.83;;;;;;;4.94;84.33;95577.22;1779207;81;21137;-69
2021/04/19 03:15:01;;;;;;;5.00;4.10;;;;;;;4.95;84.29;95575.89;1779460;81;21280;-68
2021/04/19 03:17:31;;;;;;;5.83;4.45;;;;;;;4.99;84.23;95572.87;1779326;81;21280;-68
2021/04/19 03:20:14;;;;;;;8.17;4.27;;;;;;;5.01;84.15;95578.09;1779257;81;21662;-68
2021/04/19 03:22:58;;;;;;;5.60;4.40;;;;;;;5.01;84.13;95572.41;1778154;80;21141;-70
2021/04/19 03:25:29;;;;;;;5.47;4.47;;;;;;;5.02;84.00;95574.18;1778950;80;21114;-71
2021/04/19 03:27:59;;;;;;;5.70;4.50;;;;;;;5.04;83.91;95569.83;1779231;81;21169;-70
2021/04/19 03:30:28;;;;;;;6.30;3.73;;;;;;;5.03;83.82;95572.44;1779181;80;21323;-70
2021/04/19 03:33:00;;;;;;;5.03;4.30;;;;;;;4.98;83.83;95574.59;1778758;80;21595;-70
2021/04/19 03:35:36;;;;;;;6.67;4.40;;;;;;;4.93;83.85;95571.53;1779519;81;21288;-70
2021/04/19 03:38:07;;;;;;;8.63;4.90;;;;;;;4.92;83.79;95572.41;1779101;80;21098;-71
2021/04/19 03:40:36;;;;;;;9.57;5.60;;;;;;;4.92;83.70;95569.80;1779565;81;21160;-70
2021/04/19 03:43:13;;;;;;;11.50;7.60;;;;;;;4.90;83.67;95576.76;1758453;81;21551;-70
2021/04/19 03:45:45;;;;;;;7.63;4.87;;;;;;;4.86;83.41;95571.94;1779102;80;21160;-70
2021/04/19 03:48:27;;;;;;;6.53;4.53;;;;;;;4.76;83.91;95573.67;1759299;81;21118;-70
2021/04/19 03:51:10;;;;;;;5.80;4.33;;;;;;;4.71;83.63;95574.09;1778324;80;21271;-70
2021/04/19 03:53:49;;;;;;;6.40;4.63;;;;;;;4.65;83.95;95577.97;1779330;80;21133;-70
2021/04/19 03:56:20;;;;;;;5.00;4.00;;;;;;;4.59;84.22;95582.32;1779601;81;21153;-70
2021/04/19 03:58:51;;;;;;;5.53;3.73;;;;;;;4.52;84.98;95578.80;1777734;80;21579;-71
2021/04/19 04:01:21;;;;;;;5.63;3.93;;;;;;;4.49;85.48;95586.19;1757455;81;21295;-70
2021/04/19 04:03:52;;;;;;;5.77;4.40;;;;;;;4.48;85.27;95587.47;1779398;81;21746;-70
2021/04/19 04:06:27;;;;;;;5.95;4.67;;;;;;;4.48;84.84;95587.03;1758598;81;21150;-70
2021/04/19 04:08:56;;;;;;;4.77;3.83;;;;;;;4.48;85.17;95590.95;1779241;81;21264;-71
2021/04/19 04:11:26;;;;;;;4.57;3.60;;;;;;;4.50;85.22;95589.66;1779655;81;21571;-70
2021/04/19 04:14:03;;;;;;;7.10;5.00;;;;;;;4.45;85.93;95580.49;1777217;80;21304;-70
2021/04/19 04:16:31;;;;;;;5.83;4.60;;;;;;;4.45;85.47;95584.85;1779490;81;21177;-71
2021/04/19 04:19:01;;;;;;;7.50;4.43;;;;;;;4.47;85.36;95583.13;1778902;80;21594;-70
2021/04/19 04:21:32;;;;;;;5.00;4.20;;;;;;;4.47;85.46;95580.08;1779312;81;21295;-70
2021/04/19 04:24:03;;;;;;;7.23;4.40;;;;;;;4.48;85.50;95582.25;1778996;80;21150;-70
2021/04/19 04:26:31;;;;;;;5.43;3.97;;;;;;;4.51;85.50;95580.55;1779424;81;21287;-70
2021/04/19 04:29:01;;;;;;;5.27;3.97;;;;;;;4.55;85.55;95583.59;1757089;81;21129;-70
2021/04/19 04:31:31;;;;;;;5.47;3.90;;;;;;;4.57;85.75;95578.38;1784565;80;21303;-70
2021/04/19 04:34:00;;;;;;;5.83;4.33;;;;;;;4.63;85.76;95581.45;1759562;80;21118;-70
2021/04/19 04:36:28;;;;;;;4.77;4.30;;;;;;;4.67;85.76;95581.47;1787814;80;21725;-70
2021/04/19 04:38:58;;;;;;;6.80;5.20;;;;;;;4.67;85.64;95580.60;1787306;80;21134;-70
2021/04/19 04:41:33;;;;;;;6.33;5.10;;;;;;;4.71;85.57;95581.94;1786053;80;21291;-70
2021/04/19 04:44:02;;;;;;;6.03;5.23;;;;;;;4.76;85.62;95584.12;1787941;80;21723;-70
2021/04/19 04:47:00;;;;;;;5.40;4.33;;;;;;;4.78;85.54;95582.81;1759806;80;21586;-70
2021/04/19 04:49:36;;;;;;;6.90;5.03;;;;;;;4.81;85.24;95580.20;1787755;80;21267;-70
2021/04/19 04:52:06;;;;;;;6.37;5.07;;;;;;;4.80;85.19;95577.16;1787507;80;21272;-70
2021/04/19 04:54:38;;;;;;;8.23;5.60;;;;;;;4.80;85.31;95585.00;1788043;80;21282;-70
2021/04/19 04:57:07;;;;;;;9.67;6.00;;;;;;;4.83;85.22;95582.83;1787942;80;21276;-70
2021/04/19 04:59:38;;;;;;;5.20;4.27;;;;;;;4.90;85.28;95585.47;1787972;80;21715;-70
2021/04/19 05:02:08;;;;;;;6.37;4.97;;;;;;;4.98;85.04;95586.36;1787894;80;21697;-71
2021/04/19 05:04:35;;;;;;;7.47;5.00;;;;;;;5.01;84.96;95582.01;1787846;80;21295;-70
2021/04/19 05:07:03;;;;;;;6.03;4.93;;;;;;;5.02;84.94;95588.56;1788202;80;21109;-70
2021/04/19 05:09:31;;;;;;;6.80;4.97;;;;;;;5.05;84.92;95584.64;1787982;80;21705;-70
2021/04/19 05:11:59;;;;;;;7.37;5.00;;;;;;;5.12;84.61;95580.31;1787918;80;21583;-71
2021/04/19 05:14:27;;;;;;;7.30;5.23;;;;;;;5.15;84.46;95585.54;1787866;80;21279;-71
2021/04/19 05:16:55;;;;;;;8.77;5.80;;;;;;;5.15;84.21;95582.92;1787978;80;21272;-71
2021/04/19 05:19:23;;;;;;;7.73;5.77;;;;;;;5.06;84.47;95581.14;1788080;80;21291;-71
2021/04/19 05:21:52;;;;;;;7.23;5.33;;;;;;;5.03;84.80;95581.59;1787864;80;21702;-70
2021/04/19 05:24:19;;;;;;;6.60;4.77;;;;;;;4.96;85.21;95580.69;1787816;80;21161;-71
2021/04/19 05:26:46;;;;;;;6.83;5.17;;;;;;;4.95;85.11;95579.81;1787941;80;21725;-70
2021/04/19 05:29:15;;;;;;;8.53;6.63;;;;;;;4.95;85.20;95585.05;1788065;80;21129;-71
2021/04/19 05:31:42;;;;;;;9.33;6.90;;;;;;;4.93;85.33;95578.94;1786003;80;21295;-71
2021/04/19 05:34:10;;;;;;;13.00;7.57;;;;;;;4.93;85.33;95568.91;1785028;80;21160;-71
2021/04/19 05:36:38;;;;;;;8.87;6.77;;;;;;;4.88;85.78;95568.03;1785064;80;21284;-71
2021/04/19 05:39:07;;;;;;;10.53;7.37;;;;;;;4.84;86.01;95573.70;1785227;80;21137;-71
2021/04/19 05:41:35;;;;;;;9.00;7.03;;;;;;;4.86;85.84;95572.37;1785260;80;21160;-71
2021/04/19 05:44:03;;;;;;;11.07;8.10;;;;;;;4.82;86.47;95566.28;1756920;80;21141;-71
2021/04/19 05:46:31;;;;;;;12.20;8.83;;;;;;;4.83;86.26;95571.94;1785230;80;21576;-70
2021/04/19 05:48:58;;;;;;;14.10;8.20;;;;;;;4.82;86.42;95572.81;1785096;80;21173;-70
2021/04/19 05:51:34;;;;;;;14.47;9.33;;;;;;;4.81;86.40;95570.18;1785072;80;21702;-71
2021/04/19 05:54:02;;;;;;;19.20;11.23;;;;;;;4.81;86.53;95563.64;1785077;80;21618;-70
2021/04/19 05:56:38;;;;;;;22.73;13.27;;;;;;;4.78;86.63;95567.99;1785066;80;21275;-70
2021/04/19 05:59:14;;;;;;;17.80;11.00;;;;;;;4.79;86.70;95571.50;1784995;80;21255;-71
2021/04/19 06:01:46;;;;;;;14.30;9.33;;;;;;;4.81;86.83;95571.48;1785383;80;21166;-70
2021/04/19 06:04:38;;;;;;;18.82;11.40;;;;;;;4.80;86.94;95571.06;1785321;80;21133;-71
2021/04/19 06:07:34;;;;;;;15.03;9.47;;;;;;;4.78;86.59;95572.35;1785213;80;21532;-71
2021/04/19 06:10:26;;;;;;;15.63;10.77;;;;;;;4.77;86.82;95570.63;1741001;80;21612;-70
2021/04/19 06:12:59;;;;;;;15.00;10.67;;;;;;;4.83;86.71;95572.37;1784515;80;21134;-70
2021/04/19 06:15:28;;;;;;;16.60;10.03;;;;;;;4.86;86.57;95570.63;1756659;80;21161;-70
2021/04/19 06:17:59;;;;;;;12.40;9.20;;;;;;;4.91;86.58;95565.02;1785080;80;21726;-70
2021/04/19 06:20:27;;;;;;;16.13;10.47;;;;;;;4.96;86.40;95571.13;1785042;80;21165;-70
2021/04/19 06:22:57;;;;;;;19.00;10.90;;;;;;;5.04;86.45;95571.55;1784528;80;21267;-70
2021/04/19 06:25:25;;;;;;;15.30;10.30;;;;;;;5.06;86.67;95574.61;1785224;80;21110;-70
2021/04/19 06:28:04;;;;;;;14.07;9.17;;;;;;;5.15;86.37;95564.62;1785160;80;21152;-70
2021/04/19 06:30:41;;;;;;;15.20;9.67;;;;;;;5.21;86.07;95563.30;1785268;80;21679;-70
2021/04/19 06:33:09;;;;;;;12.33;9.23;;;;;;;5.28;85.89;95566.81;1784938;80;21109;-70
2021/04/19 06:35:36;;;;;;;11.87;7.83;;;;;;;5.37;85.71;95562.91;1783848;80;21291;-70
2021/04/19 06:38:03;;;;;;;11.13;7.47;;;;;;;5.41;85.54;95566.81;1756573;80;21168;-70
2021/04/19 06:40:36;;;;;;;11.73;8.10;;;;;;;5.39;85.51;95567.69;1785049;80;21279;-70
2021/04/19 06:43:04;;;;;;;8.30;6.55;;;;;;;5.38;85.50;95564.64;1784555;80;21275;-70
2021/04/19 06:45:35;;;;;;;10.33;7.50;;;;;;;5.38;85.08;95558.97;1785070;80;21274;-70
2021/04/19 06:48:06;;;;;;;9.37;6.83;;;;;;;5.45;85.09;95567.70;1784993;80;21125;-71
2021/04/19 06:50:36;;;;;;;8.87;6.60;;;;;;;5.49;84.84;95563.34;1785185;80;21142;-70
2021/04/19 06:53:05;;;;;;;9.87;6.93;;;;;;;5.48;84.82;95562.91;1756819;80;21149;-70
2021/04/19 06:55:36;;;;;;;9.10;6.67;;;;;;;5.49;84.90;95563.34;1785021;80;21222;-70
2021/04/19 06:58:05;;;;;;;9.23;6.70;;;;;;;5.49;85.05;95560.28;1785232;80;21136;-70
2021/04/19 07:00:33;;;;;;;11.03;7.17;;;;;;;5.50;84.76;95560.73;1785111;80;21726;-70
2021/04/19 07:03:04;;;;;;;11.37;7.40;;;;;;;5.52;85.08;95564.64;1785159;80;21121;-71
2021/04/19 07:05:36;;;;;;;8.70;5.87;;;;;;;5.55;85.23;95564.23;1785064;80;21713;-71
2021/04/19 07:08:31;;;;;;;7.73;5.27;;;;;;;5.55;84.95;95565.98;1785258;80;21133;-70
2021/04/19 07:11:04;;;;;;;8.87;5.97;;;;;;;5.51;84.70;95564.22;1784991;80;21275;-71
2021/04/19 07:13:35;;;;;;;10.27;7.40;;;;;;;5.51;84.76;95556.36;1785036;80;21548;-71
2021/04/19 07:16:04;;;;;;;10.20;7.33;;;;;;;5.50;85.05;95561.17;1784984;80;21311;-71
2021/04/19 07:18:34;;;;;;;11.87;7.40;;;;;;;5.48;85.48;95560.30;1785010;80;21599;-71
2021/04/19 07:21:08;;;;;;;10.60;6.77;;;;;;;5.48;85.69;95560.30;1785012;80;21259;-71
2021/04/19 07:23:36;;;;;;;14.40;8.43;;;;;;;5.47;85.40;95555.50;1784970;80;21295;-70
2021/04/19 07:26:06;;;;;;;15.17;8.03;;;;;;;5.49;85.29;95556.35;1785220;80;21279;-71
2021/04/19 07:28:37;;;;;;;14.73;9.20;;;;;;;5.47;85.47;95554.20;1785036;80;21291;-71
2021/04/19 07:31:09;;;;;;;13.27;8.67;;;;;;;5.38;85.41;95551.56;1784388;80;21256;-71
2021/04/19 07:33:38;;;;;;;11.47;7.47;;;;;;;5.32;85.31;95556.36;1779428;81;21660;-71
2021/04/19 07:36:30;;;;;;;17.97;8.87;;;;;;;5.26;85.72;95556.34;1757664;81;21579;-71
2021/04/19 07:39:00;;;;;;;10.57;7.20;;;;;;;5.21;85.87;95552.40;1779375;81;21137;-68
2021/04/19 07:41:48;;;;;;;11.57;7.80;;;;;;;5.27;85.97;95554.18;1779260;81;21272;-68
2021/04/19 07:44:49;;;;;;;11.20;6.83;;;;;;;5.36;85.91;95550.23;1870397;76;22849;-69
2021/04/19 07:47:33;;;;;;;15.53;9.50;;;;;;;5.36;85.96;95550.23;1760451;81;21258;-69
2021/04/19 07:50:12;;;;;;;11.97;8.30;;;;;;;5.44;86.24;95554.17;1776872;81;21122;-69
2021/04/19 07:53:04;;;;;;;11.00;7.23;;;;;;;5.47;86.22;95556.81;1760322;81;21247;-69
2021/04/19 07:55:38;;;;;;;8.50;6.43;;;;;;;5.50;86.15;95551.58;1777132;81;21130;-69
2021/04/19 07:58:19;;;;;;;8.13;6.17;;;;;;;5.56;85.88;95547.63;1760408;81;21266;-69
2021/04/19 08:00:48;;;;;;;8.87;6.73;;;;;;;5.62;85.96;95546.34;1776940;81;21125;-69
2021/04/19 08:03:19;;;;;;;12.33;6.60;;;;;;;5.64;85.92;95543.70;1760339;81;21310;-69
2021/04/19 08:05:51;;;;;;;9.13;6.40;;;;;;;5.70;85.74;95544.16;1776968;81;21095;-69
2021/04/19 08:08:29;;;;;;;9.20;6.27;;;;;;;5.71;85.74;95542.84;1760744;81;21255;-69
2021/04/19 08:11:10;;;;;;;8.50;6.57;;;;;;;5.75;85.49;95542.41;1777022;81;21584;-69
2021/04/19 08:13:39;;;;;;;8.93;6.03;;;;;;;5.79;85.33;95543.69;1760301;81;21263;-69
2021/04/19 08:16:28;;;;;;;7.73;5.63;;;;;;;5.85;85.07;95542.84;1776919;81;21142;-69
2021/04/19 08:19:03;;;;;;;8.77;5.60;;;;;;;5.84;84.94;95538.02;1759470;81;21294;-69
2021/04/19 08:21:33;;;;;;;5.77;4.63;;;;;;;5.84;84.85;95536.70;1776856;81;21553;-69
2021/04/19 08:24:15;;;;;;;6.50;4.80;;;;;;;5.82;84.53;95541.51;1760648;81;21157;-69
2021/04/19 08:26:54;;;;;;;7.58;5.92;;;;;;;5.87;84.85;95531.90;1776993;81;21225;-69
2021/04/19 08:29:45;;;;;;;7.40;5.90;;;;;;;5.91;84.79;95538.02;1760428;81;21266;-69
2021/04/19 08:32:16;;;;;;;6.00;5.10;;;;;;;6.00;84.73;95537.61;1777138;81;21126;-69
2021/04/19 08:34:49;;;;;;;6.20;4.97;;;;;;;5.93;84.92;95534.53;1760252;81;21137;-69
2021/04/19 08:37:26;;;;;;;4.90;4.23;;;;;;;5.93;84.62;95538.90;1777012;81;21149;-69
2021/04/19 08:39:58;;;;;;;5.60;4.23;;;;;;;5.84;84.50;95540.63;1760563;81;21290;-69
2021/04/19 08:42:27;;;;;;;5.53;4.30;;;;;;;5.75;84.90;95543.72;1776907;80;21158;-69
2021/04/19 08:45:01;;;;;;;11.23;6.20;;;;;;;5.74;85.02;95542.83;1766029;81;21135;-69
2021/04/19 08:47:31;;;;;;;5.83;4.00;;;;;;;5.67;85.24;95537.59;1780149;80;21122;-69
2021/04/19 08:50:03;;;;;;;6.97;4.97;;;;;;;5.64;85.51;95543.30;1766013;81;21127;-69
2021/04/19 08:52:31;;;;;;;6.53;4.20;;;;;;;5.58;86.13;95535.42;1780234;80;21126;-69
2021/04/19 08:55:00;;;;;;;5.27;4.23;;;;;;;5.58;86.15;95545.03;1765551;81;21523;-69
2021/04/19 08:57:27;;;;;;;5.90;5.13;;;;;;;5.57;86.25;95541.55;1779692;81;21166;-69
2021/04/19 08:59:57;;;;;;;15.87;8.67;;;;;;;5.54;86.55;95542.83;1765442;81;21148;-69
2021/04/19 09:02:26;;;;;;;8.27;6.27;;;;;;;5.52;86.39;95539.37;1779577;81;21139;-69
2021/04/19 09:05:16;;;;;;;5.03;4.53;;;;;;;5.54;86.09;95538.04;1765363;81;21132;-69
2021/04/19 09:07:49;;;;;;;8.30;5.27;;;;;;;5.51;86.21;95537.61;1779647;81;21137;-69
2021/04/19 09:10:20;;;;;;;7.17;5.10;;;;;;;5.52;85.95;95538.06;1765598;81;21116;-69
2021/04/19 09:12:48;;;;;;;10.30;6.60;;;;;;;5.56;86.12;95538.92;1779661;80;21118;-69
2021/04/19 09:15:20;;;;;;;5.83;4.33;;;;;;;5.57;86.32;95539.38;1765567;81;21116;-69
2021/04/19 09:18:10;;;;;;;7.17;4.55;;;;;;;5.55;86.35;95541.11;1779680;81;21133;-69
2021/04/19 09:20:51;;;;;;;5.97;4.63;;;;;;;5.58;86.06;95537.18;1764245;81;21135;-69
2021/04/19 09:23:31;;;;;;;4.10;3.70;;;;;;;5.63;86.06;95538.05;1779727;81;21565;-69
2021/04/19 09:26:01;;;;;;;6.87;4.23;;;;;;;5.69;85.72;95535.41;1765665;81;21535;-69
2021/04/19 09:28:47;;;;;;;5.23;4.27;;;;;;;5.74;85.69;95534.11;1779821;80;21548;-69
2021/04/19 09:31:14;;;;;;;5.27;3.90;;;;;;;5.79;85.95;95537.15;1765501;81;21124;-69
2021/04/19 09:33:42;;;;;;;4.10;3.30;;;;;;;5.80;85.40;95538.05;1779605;81;21114;-69
2021/04/19 09:36:10;;;;;;;4.07;3.27;;;;;;;5.78;85.60;95534.55;1765554;81;21578;-69
2021/04/19 09:38:51;;;;;;;3.87;3.47;;;;;;;5.76;85.43;95544.15;1779701;81;21129;-69
2021/04/19 09:41:20;;;;;;;4.27;3.20;;;;;;;5.82;85.36;95544.13;1765397;81;21132;-69
2021/04/19 09:43:59;;;;;;;3.53;3.17;;;;;;;5.86;85.04;95545.88;1779450;80;21583;-69
2021/04/19 09:46:31;;;;;;;6.43;4.80;;;;;;;5.86;84.87;95541.51;1765440;81;21503;-69
2021/04/19 09:49:04;;;;;;;4.40;3.73;;;;;;;5.88;84.90;95538.03;1779512;81;21198;-69
2021/04/19 09:51:43;;;;;;;7.47;5.23;;;;;;;5.88;84.90;95538.03;1765329;81;21120;-69
2021/04/19 09:54:14;;;;;;;7.07;5.00;;;;;;;5.91;84.93;95535.41;1779635;80;21115;-69
2021/04/19 09:56:49;;;;;;;5.87;4.03;;;;;;;5.88;85.00;95523.19;1765496;81;21116;-69
2021/04/19 09:59:19;;;;;;;6.53;4.90;;;;;;;5.82;85.14;95529.31;1779681;81;21121;-70
2021/04/19 10:01:51;;;;;;;6.43;5.00;;;;;;;5.73;85.59;95521.91;1765416;81;21117;-64
2021/04/19 10:04:21;;;;;;;6.60;4.12;;;;;;;5.56;85.91;95522.77;1779600;81;21149;-64
2021/04/19 10:07:01;;;;;;;6.50;4.90;;;;;;;5.49;86.33;95517.09;1765533;81;21108;-64
2021/04/19 10:09:30;;;;;;;6.33;4.60;;;;;;;5.50;85.86;95518.86;1779571;81;21125;-67
2021/04/19 10:12:05;;;;;;;7.50;4.80;;;;;;;5.47;86.15;95516.25;1765506;81;21226;-64
2021/04/19 10:14:36;;;;;;;8.50;6.20;;;;;;;5.48;86.29;95512.75;1779774;81;21129;-66
2021/04/19 10:17:14;;;;;;;8.53;5.63;;;;;;;5.52;86.63;95516.22;1765412;81;21131;-66
2021/04/19 10:19:42;;;;;;;9.97;7.40;;;;;;;5.49;87.08;95513.17;1779267;81;21137;-66
2021/04/19 10:22:12;;;;;;;9.23;6.50;;;;;;;5.54;86.66;95511.42;1765368;81;21109;-67
2021/04/19 10:24:59;;;;;;;14.43;9.40;;;;;;;5.56;86.66;95515.36;1779773;81;21130;-68
2021/04/19 10:27:30;;;;;;;14.93;10.03;;;;;;;5.57;86.57;95512.76;1765616;81;21565;-65
2021/04/19 10:30:15;;;;;;;14.80;10.37;;;;;;;5.62;86.59;95510.14;1779649;81;21568;-66
2021/04/19 10:32:46;;;;;;;9.47;6.90;;;;;;;5.66;86.66;95516.23;1765718;81;21136;-67
2021/04/19 10:35:37;;;;;;;10.33;6.00;;;;;;;5.69;86.55;95517.09;1765327;81;21132;-73
2021/04/19 10:38:07;;;;;;;8.70;5.80;;;;;;;5.73;86.47;95514.05;1763971;81;21581;-67
2021/04/19 10:40:35;;;;;;;7.27;5.40;;;;;;;5.78;86.25;95514.91;1765500;81;21916;-67
2021/04/19 10:43:14;;;;;;;9.47;6.23;;;;;;;5.83;86.16;95517.09;1765000;81;21144;-63
2021/04/19 10:45:43;;;;;;;12.03;7.00;;;;;;;5.82;85.92;95516.64;1759772;81;21132;-65
2021/04/19 10:48:19;;;;;;;8.17;5.97;;;;;;;5.82;85.76;95514.02;1759849;81;21562;-63
2021/04/19 10:50:54;;;;;;;8.70;6.10;;;;;;;5.83;85.61;95517.09;1759546;81;21583;-62
2021/04/19 10:53:36;;;;;;;10.43;6.70;;;;;;;5.83;85.74;95519.27;1759740;81;21120;-61
2021/04/19 10:56:07;;;;;;;11.50;6.90;;;;;;;5.89;85.79;95510.52;1759768;81;21543;-61
2021/04/19 10:58:38;;;;;;;10.83;7.10;;;;;;;5.98;85.72;95508.38;1760052;81;21531;-62
2021/04/19 11:01:07;;;;;;;11.77;8.53;;;;;;;6.05;85.62;95502.25;1759897;81;21190;-62
2021/04/19 11:03:37;;;;;;;12.67;8.73;;;;;;;6.11;85.47;95499.59;1759757;81;21899;-62
2021/04/19 11:06:09;;;;;;;11.30;8.00;;;;;;;6.14;85.28;95499.58;1759441;81;21117;-62
2021/04/19 11:08:57;;;;;;;12.37;8.60;;;;;;;6.13;85.17;95501.78;1759891;81;21483;-62
2021/04/19 11:11:33;;;;;;;14.13;8.00;;;;;;;6.14;85.25;95494.34;1759693;81;21183;-62
2021/04/19 11:14:20;;;;;;;9.87;6.27;;;;;;;6.05;85.35;95499.19;1759384;81;21133;-62
2021/04/19 11:17:00;;;;;;;15.10;7.57;;;;;;;5.98;85.48;95499.20;1759521;81;21120;-62
2021/04/19 11:19:46;;;;;;;10.13;7.33;;;;;;;5.98;85.49;95501.38;1759650;81;21128;-62
2021/04/19 11:22:27;;;;;;;12.60;7.27;;;;;;;5.97;85.64;95503.98;1759822;81;21137;-62
2021/04/19 11:25:22;;;;;;;;;;;;;;;5.94;85.47;95500.08;1791323;80;21135;-62
2021/04/19 11:27:53;;;;;;;8.87;6.10;;;;;;;5.93;85.79;95501.80;1776609;81;20136;-62
2021/04/19 11:30:30;;;;;;;10.93;7.00;;;;;;;5.92;85.61;95503.09;1756292;81;21132;-62
2021/04/19 11:33:10;;;;;;;16.43;11.10;;;;;;;5.94;85.82;95502.25;1775322;81;21702;-62
2021/04/19 11:35:49;;;;;;;18.90;14.68;;;;;;;6.01;85.99;95494.81;1801940;79;27951;-62
2021/04/19 11:38:22;;;;;;;13.30;9.13;;;;;;;6.14;85.44;95494.78;1788506;80;21109;-62
2021/04/19 11:40:58;;;;;;;10.98;7.47;;;;;;;6.04;85.72;95493.48;1788311;80;21598;-62
2021/04/19 11:43:35;;;;;;;11.23;7.40;;;;;;;6.03;85.60;95494.83;1788417;80;21120;-62
2021/04/19 11:46:14;;;;;;;8.77;6.17;;;;;;;6.01;85.49;95496.13;1788516;80;21152;-62
2021/04/19 11:48:46;;;;;;;11.60;8.50;;;;;;;6.04;85.62;95493.94;1788589;80;21566;-62
2021/04/19 11:51:16;;;;;;;12.60;8.07;;;;;;;6.10;85.69;95486.48;1788441;80;21559;-62
2021/04/19 11:53:46;;;;;;;13.17;9.23;;;;;;;6.15;85.75;95486.94;1788688;80;21149;-62
2021/04/19 11:56:17;;;;;;;13.03;8.67;;;;;;;6.20;85.84;95489.52;1788695;80;21125;-62
2021/04/19 11:58:49;;;;;;;11.57;8.83;;;;;;;6.27;85.99;95488.20;1788485;80;21551;-62
2021/04/19 12:01:21;;;;;;;10.38;7.60;;;;;;;6.37;86.00;95485.08;1788910;80;21124;-62
2021/04/19 12:03:50;;;;;;;11.33;7.53;;;;;;;6.49;85.42;95481.11;1788487;80;21120;-62
2021/04/19 12:06:20;;;;;;;12.67;8.17;;;;;;;6.56;84.68;95479.78;1788596;80;21101;-62
2021/04/19 12:08:49;;;;;;;12.43;8.73;;;;;;;6.65;84.64;95475.37;1788553;80;21571;-62